sensor_id;sensor_type;location;lat;lon;timestamp;temperature;humidity
13896;DHT22;7018;50.838;4.226;2022-09-20T00:01:11;11.40;99.90
13896;DHT22;7018;50.838;4.226;2022-09-20T00:03:43;11.40;99.90
13896;DHT22;7018;50.838;4.226;2022-09-20T00:06:14;11.30;99.90
13896;DHT22;7018;50.838;4.226;2022-09-20T00:08:42;11.30;99.90
13896;DHT22;7018;50.838;4.226;2022-09-20T00:11:18;11.30;99.90
13896;DHT22;7018;50.838;4.226;2022-09-20T00:13:47;11.30;99.90
13896;DHT22;7018;50.838;4.226;2022-09-20T00:16:20;11.30;99.90
13896;DHT22;7018;50.838;4.226;2022-09-20T00:18:54;11.30;99.90
13896;DHT22;7018;50.838;4.226;2022-09-20T00:21:27;11.30;99.90
13896;DHT22;7018;50.838;4.226;2022-09-20T00:23:56;11.20;99.90
13896;DHT22;7018;50.838;4.226;2022-09-20T00:26:25;11.10;99.90
13896;DHT22;7018;50.838;4.226;2022-09-20T00:28:54;11.10;99.90
13896;DHT22;7018;50.838;4.226;2022-09-20T00:31:23;11.10;99.90
13896;DHT22;7018;50.838;4.226;2022-09-20T00:33:55;11.10;99.90
13896;DHT22;7018;50.838;4.226;2022-09-20T00:36:42;11.20;99.90
13896;DHT22;7018;50.838;4.226;2022-09-20T00:39:12;11.30;99.90
13896;DHT22;7018;50.838;4.226;2022-09-20T00:41:39;11.20;99.90
13896;DHT22;7018;50.838;4.226;2022-09-20T00:44:46;11.10;99.90
13896;DHT22;7018;50.838;4.226;2022-09-20T00:47:26;11.10;99.90
13896;DHT22;7018;50.838;4.226;2022-09-20T00:52:39;11.10;99.90
13896;DHT22;7018;50.838;4.226;2022-09-20T00:55:07;11.10;99.90
13896;DHT22;7018;50.838;4.226;2022-09-20T00:57:36;11.20;99.90
13896;DHT22;7018;50.838;4.226;2022-09-20T01:00:08;11.20;99.90
13896;DHT22;7018;50.838;4.226;2022-09-20T01:02:41;11.20;99.90
13896;DHT22;7018;50.838;4.226;2022-09-20T01:05:10;11.20;99.90
13896;DHT22;7018;50.838;4.226;2022-09-20T01:07:41;11.30;99.90
13896;DHT22;7018;50.838;4.226;2022-09-20T01:10:09;11.30;99.90
13896;DHT22;7018;50.838;4.226;2022-09-20T01:12:37;11.40;99.90
13896;DHT22;7018;50.838;4.226;2022-09-20T01:15:07;11.40;99.90
13896;DHT22;7018;50.838;4.226;2022-09-20T01:17:38;11.40;99.90
13896;DHT22;7018;50.838;4.226;2022-09-20T01:22:46;11.40;99.90
13896;DHT22;7018;50.838;4.226;2022-09-20T01:25:35;11.40;99.90
13896;DHT22;7018;50.838;4.226;2022-09-20T01:28:07;11.50;99.90
13896;DHT22;7018;50.838;4.226;2022-09-20T01:30:42;11.50;99.90
13896;DHT22;7018;50.838;4.226;2022-09-20T01:33:25;11.50;99.90
13896;DHT22;7018;50.838;4.226;2022-09-20T01:35:57;11.30;99.90
13896;DHT22;7018;50.838;4.226;2022-09-20T01:38:39;11.20;99.90
13896;DHT22;7018;50.838;4.226;2022-09-20T01:41:17;11.20;99.90
13896;DHT22;7018;50.838;4.226;2022-09-20T01:43:52;11.10;99.90
13896;DHT22;7018;50.838;4.226;2022-09-20T01:46:33;11.10;99.90
13896;DHT22;7018;50.838;4.226;2022-09-20T01:57:36;10.90;99.90
13896;DHT22;7018;50.838;4.226;2022-09-20T02:13:44;10.60;99.90
13896;DHT22;7018;50.838;4.226;2022-09-20T02:16:33;10.60;99.90
13896;DHT22;7018;50.838;4.226;2022-09-20T02:19:19;10.50;99.90
13896;DHT22;7018;50.838;4.226;2022-09-20T02:22:03;10.60;99.90
13896;DHT22;7018;50.838;4.226;2022-09-20T02:35:50;10.60;99.90
13896;DHT22;7018;50.838;4.226;2022-09-20T03:07:10;11.00;99.90
13896;DHT22;7018;50.838;4.226;2022-09-20T03:10:04;11.10;99.90
13896;DHT22;7018;50.838;4.226;2022-09-20T03:12:51;11.00;99.90
13896;DHT22;7018;50.838;4.226;2022-09-20T03:15:39;10.90;99.90
13896;DHT22;7018;50.838;4.226;2022-09-20T03:20:54;10.90;99.90
13896;DHT22;7018;50.838;4.226;2022-09-20T03:26:50;11.00;99.90
13896;DHT22;7018;50.838;4.226;2022-09-20T03:29:39;10.90;99.90
13896;DHT22;7018;50.838;4.226;2022-09-20T03:35:01;11.00;99.90
13896;DHT22;7018;50.838;4.226;2022-09-20T03:40:11;11.00;99.90
13896;DHT22;7018;50.838;4.226;2022-09-20T03:42:48;11.10;99.90
13896;DHT22;7018;50.838;4.226;2022-09-20T03:57:10;10.70;99.90
13896;DHT22;7018;50.838;4.226;2022-09-20T04:00:12;10.60;99.90
13896;DHT22;7018;50.838;4.226;2022-09-20T04:06:00;10.60;99.90
13896;DHT22;7018;50.838;4.226;2022-09-20T04:14:39;10.60;99.90
13896;DHT22;7018;50.838;4.226;2022-09-20T04:20:06;10.50;99.90
13896;DHT22;7018;50.838;4.226;2022-09-20T04:22:39;10.50;99.90
13896;DHT22;7018;50.838;4.226;2022-09-20T04:25:18;10.40;99.90
13896;DHT22;7018;50.838;4.226;2022-09-20T04:27:54;10.30;99.90
13896;DHT22;7018;50.838;4.226;2022-09-20T04:30:30;10.30;99.90
13896;DHT22;7018;50.838;4.226;2022-09-20T04:33:25;10.30;99.90
13896;DHT22;7018;50.838;4.226;2022-09-20T04:38:56;10.30;99.90
13896;DHT22;7018;50.838;4.226;2022-09-20T04:50:07;10.20;99.90
13896;DHT22;7018;50.838;4.226;2022-09-20T05:04:06;10.00;99.90
13896;DHT22;7018;50.838;4.226;2022-09-20T05:15:06;9.80;99.90
13896;DHT22;7018;50.838;4.226;2022-09-20T05:20:41;9.70;99.90
13896;DHT22;7018;50.838;4.226;2022-09-20T05:23:42;9.70;99.90
13896;DHT22;7018;50.838;4.226;2022-09-20T05:29:16;9.70;99.90
13896;DHT22;7018;50.838;4.226;2022-09-20T05:43:08;9.50;99.90
13896;DHT22;7018;50.838;4.226;2022-09-20T05:48:39;9.40;99.90
13896;DHT22;7018;50.838;4.226;2022-09-20T05:54:40;9.50;99.90
13896;DHT22;7018;50.838;4.226;2022-09-20T06:00:11;9.60;99.90
13896;DHT22;7018;50.838;4.226;2022-09-20T06:02:55;9.60;99.90
13896;DHT22;7018;50.838;4.226;2022-09-20T06:22:22;9.80;99.90
13896;DHT22;7018;50.838;4.226;2022-09-20T06:28:03;10.00;99.90
13896;DHT22;7018;50.838;4.226;2022-09-20T06:30:49;10.20;99.90
13896;DHT22;7018;50.838;4.226;2022-09-20T06:33:19;10.30;99.90
13896;DHT22;7018;50.838;4.226;2022-09-20T06:35:52;10.20;99.90
13896;DHT22;7018;50.838;4.226;2022-09-20T06:41:20;10.40;99.90
13896;DHT22;7018;50.838;4.226;2022-09-20T06:43:57;10.50;99.90
13896;DHT22;7018;50.838;4.226;2022-09-20T06:46:27;10.50;99.90
13896;DHT22;7018;50.838;4.226;2022-09-20T06:48:55;10.60;99.90
13896;DHT22;7018;50.838;4.226;2022-09-20T06:51:25;10.60;99.90
13896;DHT22;7018;50.838;4.226;2022-09-20T06:53:54;10.60;99.90
13896;DHT22;7018;50.838;4.226;2022-09-20T06:56:25;10.60;99.90
13896;DHT22;7018;50.838;4.226;2022-09-20T06:58:53;10.70;99.90
13896;DHT22;7018;50.838;4.226;2022-09-20T07:01:22;10.90;99.90
13896;DHT22;7018;50.838;4.226;2022-09-20T07:03:55;10.90;99.90
13896;DHT22;7018;50.838;4.226;2022-09-20T07:06:22;11.00;99.90
13896;DHT22;7018;50.838;4.226;2022-09-20T07:08:50;11.00;99.90
13896;DHT22;7018;50.838;4.226;2022-09-20T07:11:18;11.10;99.90
13896;DHT22;7018;50.838;4.226;2022-09-20T07:13:50;11.10;99.90
13896;DHT22;7018;50.838;4.226;2022-09-20T07:16:18;11.30;99.90
13896;DHT22;7018;50.838;4.226;2022-09-20T07:18:47;11.20;99.90
13896;DHT22;7018;50.838;4.226;2022-09-20T07:21:17;11.20;99.90
13896;DHT22;7018;50.838;4.226;2022-09-20T07:23:45;11.30;99.90
13896;DHT22;7018;50.838;4.226;2022-09-20T07:26:27;11.30;99.90
13896;DHT22;7018;50.838;4.226;2022-09-20T07:28:55;11.40;99.90
13896;DHT22;7018;50.838;4.226;2022-09-20T07:31:25;11.50;99.90
13896;DHT22;7018;50.838;4.226;2022-09-20T07:33:55;11.60;99.90
13896;DHT22;7018;50.838;4.226;2022-09-20T07:36:23;11.70;99.90
13896;DHT22;7018;50.838;4.226;2022-09-20T07:38:52;11.90;99.90
13896;DHT22;7018;50.838;4.226;2022-09-20T07:41:20;12.00;99.90
13896;DHT22;7018;50.838;4.226;2022-09-20T07:43:48;12.20;99.90
13896;DHT22;7018;50.838;4.226;2022-09-20T07:46:22;12.20;99.90
13896;DHT22;7018;50.838;4.226;2022-09-20T07:48:50;12.30;99.90
13896;DHT22;7018;50.838;4.226;2022-09-20T07:51:18;12.40;99.90
13896;DHT22;7018;50.838;4.226;2022-09-20T07:53:45;12.50;99.90
13896;DHT22;7018;50.838;4.226;2022-09-20T07:56:14;12.50;99.90
13896;DHT22;7018;50.838;4.226;2022-09-20T07:58:45;12.50;99.90
13896;DHT22;7018;50.838;4.226;2022-09-20T08:01:17;12.40;99.90
13896;DHT22;7018;50.838;4.226;2022-09-20T08:03:46;12.40;99.90
13896;DHT22;7018;50.838;4.226;2022-09-20T08:06:14;12.40;99.90
13896;DHT22;7018;50.838;4.226;2022-09-20T08:08:42;12.40;99.90
13896;DHT22;7018;50.838;4.226;2022-09-20T08:11:12;12.50;99.90
13896;DHT22;7018;50.838;4.226;2022-09-20T08:13:42;12.60;99.90
13896;DHT22;7018;50.838;4.226;2022-09-20T08:16:30;12.80;99.90
13896;DHT22;7018;50.838;4.226;2022-09-20T08:19:00;13.00;99.90
13896;DHT22;7018;50.838;4.226;2022-09-20T08:21:31;13.10;99.90
13896;DHT22;7018;50.838;4.226;2022-09-20T08:23:59;13.20;99.90
13896;DHT22;7018;50.838;4.226;2022-09-20T08:26:28;13.40;99.90
13896;DHT22;7018;50.838;4.226;2022-09-20T08:28:58;13.60;99.90
13896;DHT22;7018;50.838;4.226;2022-09-20T08:31:30;13.70;99.90
13896;DHT22;7018;50.838;4.226;2022-09-20T08:34:04;13.80;99.90
13896;DHT22;7018;50.838;4.226;2022-09-20T08:36:34;14.00;99.90
13896;DHT22;7018;50.838;4.226;2022-09-20T08:39:04;14.10;99.90
13896;DHT22;7018;50.838;4.226;2022-09-20T08:42:00;14.20;99.90
13896;DHT22;7018;50.838;4.226;2022-09-20T08:44:34;14.30;99.90
13896;DHT22;7018;50.838;4.226;2022-09-20T08:49:43;14.70;99.90
13896;DHT22;7018;50.838;4.226;2022-09-20T08:52:17;14.90;99.90
13896;DHT22;7018;50.838;4.226;2022-09-20T08:54:45;15.10;99.90
13896;DHT22;7018;50.838;4.226;2022-09-20T08:57:17;15.40;99.90
13896;DHT22;7018;50.838;4.226;2022-09-20T08:59:46;15.40;99.90
13896;DHT22;7018;50.838;4.226;2022-09-20T09:02:17;15.50;99.90
13896;DHT22;7018;50.838;4.226;2022-09-20T09:04:45;15.70;99.90
13896;DHT22;7018;50.838;4.226;2022-09-20T09:07:17;15.70;99.90
13896;DHT22;7018;50.838;4.226;2022-09-20T09:09:51;15.70;99.90
13896;DHT22;7018;50.838;4.226;2022-09-20T09:12:23;15.50;99.90
13896;DHT22;7018;50.838;4.226;2022-09-20T09:14:52;15.20;99.90
13896;DHT22;7018;50.838;4.226;2022-09-20T09:17:25;15.20;99.90
13896;DHT22;7018;50.838;4.226;2022-09-20T09:19:58;15.00;99.90
13896;DHT22;7018;50.838;4.226;2022-09-20T09:25:23;15.00;99.90
13896;DHT22;7018;50.838;4.226;2022-09-20T09:28:10;15.00;99.90
13896;DHT22;7018;50.838;4.226;2022-09-20T09:30:45;15.10;99.90
13896;DHT22;7018;50.838;4.226;2022-09-20T09:33:33;15.20;99.90
13896;DHT22;7018;50.838;4.226;2022-09-20T09:36:15;15.20;99.90
13896;DHT22;7018;50.838;4.226;2022-09-20T09:38:44;15.30;99.90
13896;DHT22;7018;50.838;4.226;2022-09-20T09:41:30;15.30;99.90
13896;DHT22;7018;50.838;4.226;2022-09-20T09:44:08;15.40;99.90
13896;DHT22;7018;50.838;4.226;2022-09-20T09:46:44;15.40;99.90
13896;DHT22;7018;50.838;4.226;2022-09-20T09:49:18;15.70;99.90
13896;DHT22;7018;50.838;4.226;2022-09-20T09:54:48;16.20;99.90
13896;DHT22;7018;50.838;4.226;2022-09-20T10:03:15;16.60;99.90
13896;DHT22;7018;50.838;4.226;2022-09-20T10:09:18;16.30;99.90
13896;DHT22;7018;50.838;4.226;2022-09-20T10:17:53;16.30;99.90
13896;DHT22;7018;50.838;4.226;2022-09-20T10:26:57;16.60;99.90
13896;DHT22;7018;50.838;4.226;2022-09-20T10:33:22;16.70;99.90
13896;DHT22;7018;50.838;4.226;2022-09-20T10:38:34;16.80;99.90
13896;DHT22;7018;50.838;4.226;2022-09-20T10:47:13;16.40;99.90
13896;DHT22;7018;50.838;4.226;2022-09-20T10:52:39;16.30;99.90
13896;DHT22;7018;50.838;4.226;2022-09-20T11:01:33;15.90;99.90
13896;DHT22;7018;50.838;4.226;2022-09-20T11:04:37;15.90;99.90
13896;DHT22;7018;50.838;4.226;2022-09-20T11:10:05;15.80;99.90
13896;DHT22;7018;50.838;4.226;2022-09-20T11:12:54;15.70;99.90
13896;DHT22;7018;50.838;4.226;2022-09-20T11:15:35;15.90;99.90
13896;DHT22;7018;50.838;4.226;2022-09-20T11:21:27;16.20;99.90
13896;DHT22;7018;50.838;4.226;2022-09-20T11:30:03;16.50;99.90
13896;DHT22;7018;50.838;4.226;2022-09-20T11:32:35;16.60;99.90
13896;DHT22;7018;50.838;4.226;2022-09-20T11:37:59;16.70;99.90
13896;DHT22;7018;50.838;4.226;2022-09-20T11:40:35;16.80;99.90
13896;DHT22;7018;50.838;4.226;2022-09-20T11:43:05;16.90;99.90
13896;DHT22;7018;50.838;4.226;2022-09-20T11:45:36;16.80;99.90
13896;DHT22;7018;50.838;4.226;2022-09-20T11:48:12;16.80;99.90
13896;DHT22;7018;50.838;4.226;2022-09-20T11:56:20;17.00;99.90
13896;DHT22;7018;50.838;4.226;2022-09-20T11:58:50;17.00;99.90
13896;DHT22;7018;50.838;4.226;2022-09-20T12:01:39;17.10;99.90
13896;DHT22;7018;50.838;4.226;2022-09-20T12:04:11;17.10;99.90
13896;DHT22;7018;50.838;4.226;2022-09-20T12:07:01;17.20;99.90
13896;DHT22;7018;50.838;4.226;2022-09-20T12:09:38;17.30;99.90
13896;DHT22;7018;50.838;4.226;2022-09-20T12:12:34;17.20;99.90
13896;DHT22;7018;50.838;4.226;2022-09-20T12:28:42;17.60;99.90
13896;DHT22;7018;50.838;4.226;2022-09-20T12:47:25;17.60;99.90
13896;DHT22;7018;50.838;4.226;2022-09-20T12:49:55;17.40;99.90
13896;DHT22;7018;50.838;4.226;2022-09-20T13:03:42;16.90;99.90
13896;DHT22;7018;50.838;4.226;2022-09-20T13:11:45;16.50;99.90
13896;DHT22;7018;50.838;4.226;2022-09-20T13:14:25;16.40;99.90
13896;DHT22;7018;50.838;4.226;2022-09-20T13:19:29;16.20;99.90
13896;DHT22;7018;50.838;4.226;2022-09-20T13:22:24;16.20;99.90
13896;DHT22;7018;50.838;4.226;2022-09-20T13:24:52;16.20;99.90
13896;DHT22;7018;50.838;4.226;2022-09-20T13:27:31;16.20;99.90
13896;DHT22;7018;50.838;4.226;2022-09-20T13:32:43;16.10;99.90
13896;DHT22;7018;50.838;4.226;2022-09-20T13:35:15;16.10;99.90
13896;DHT22;7018;50.838;4.226;2022-09-20T13:37:53;16.10;99.90
13896;DHT22;7018;50.838;4.226;2022-09-20T13:40:31;16.30;99.90
13896;DHT22;7018;50.838;4.226;2022-09-20T13:43:01;16.30;99.90
13896;DHT22;7018;50.838;4.226;2022-09-20T13:45:46;16.20;99.90
13896;DHT22;7018;50.838;4.226;2022-09-20T13:48:17;16.10;99.90
13896;DHT22;7018;50.838;4.226;2022-09-20T13:50:47;16.00;99.90
13896;DHT22;7018;50.838;4.226;2022-09-20T13:53:17;16.00;99.90
13896;DHT22;7018;50.838;4.226;2022-09-20T13:55:53;16.10;99.90
13896;DHT22;7018;50.838;4.226;2022-09-20T14:00:54;16.10;99.90
13896;DHT22;7018;50.838;4.226;2022-09-20T14:03:25;16.20;99.90
13896;DHT22;7018;50.838;4.226;2022-09-20T14:06:01;16.30;99.90
13896;DHT22;7018;50.838;4.226;2022-09-20T14:08:50;16.30;99.90
13896;DHT22;7018;50.838;4.226;2022-09-20T14:11:22;16.20;99.90
13896;DHT22;7018;50.838;4.226;2022-09-20T14:13:51;16.30;99.90
13896;DHT22;7018;50.838;4.226;2022-09-20T14:16:23;16.30;99.90
13896;DHT22;7018;50.838;4.226;2022-09-20T14:18:53;16.30;99.90
13896;DHT22;7018;50.838;4.226;2022-09-20T14:21:24;16.30;99.90
13896;DHT22;7018;50.838;4.226;2022-09-20T14:24:00;16.20;99.90
13896;DHT22;7018;50.838;4.226;2022-09-20T14:26:36;16.10;99.90
13896;DHT22;7018;50.838;4.226;2022-09-20T14:34:45;15.70;99.90
13896;DHT22;7018;50.838;4.226;2022-09-20T14:37:23;15.80;99.90
13896;DHT22;7018;50.838;4.226;2022-09-20T14:39:56;15.90;99.90
13896;DHT22;7018;50.838;4.226;2022-09-20T14:42:43;16.00;99.90
13896;DHT22;7018;50.838;4.226;2022-09-20T14:47:59;16.10;99.90
13896;DHT22;7018;50.838;4.226;2022-09-20T14:50:37;16.20;99.90
13896;DHT22;7018;50.838;4.226;2022-09-20T14:53:22;16.30;99.90
13896;DHT22;7018;50.838;4.226;2022-09-20T14:55:56;16.50;99.90
13896;DHT22;7018;50.838;4.226;2022-09-20T14:58:24;16.40;99.90
13896;DHT22;7018;50.838;4.226;2022-09-20T15:01:01;16.30;99.90
13896;DHT22;7018;50.838;4.226;2022-09-20T15:03:38;16.30;99.90
13896;DHT22;7018;50.838;4.226;2022-09-20T15:06:09;16.50;99.90
13896;DHT22;7018;50.838;4.226;2022-09-20T15:08:37;16.60;99.90
13896;DHT22;7018;50.838;4.226;2022-09-20T15:11:14;16.80;99.90
13896;DHT22;7018;50.838;4.226;2022-09-20T15:13:41;16.80;99.90
13896;DHT22;7018;50.838;4.226;2022-09-20T15:16:14;16.70;99.90
13896;DHT22;7018;50.838;4.226;2022-09-20T15:18:44;16.50;99.90
13896;DHT22;7018;50.838;4.226;2022-09-20T15:21:11;16.30;99.90
13896;DHT22;7018;50.838;4.226;2022-09-20T15:23:39;16.10;99.90
13896;DHT22;7018;50.838;4.226;2022-09-20T15:26:08;16.00;99.90
13896;DHT22;7018;50.838;4.226;2022-09-20T15:28:36;15.90;99.90
13896;DHT22;7018;50.838;4.226;2022-09-20T15:31:03;15.90;99.90
13896;DHT22;7018;50.838;4.226;2022-09-20T15:33:31;16.00;99.90
13896;DHT22;7018;50.838;4.226;2022-09-20T15:36:01;16.10;99.90
13896;DHT22;7018;50.838;4.226;2022-09-20T15:38:28;16.00;99.90
13896;DHT22;7018;50.838;4.226;2022-09-20T15:40:58;16.00;99.90
13896;DHT22;7018;50.838;4.226;2022-09-20T15:43:26;16.10;99.90
13896;DHT22;7018;50.838;4.226;2022-09-20T15:45:58;16.00;99.90
13896;DHT22;7018;50.838;4.226;2022-09-20T15:48:29;16.00;99.90
13896;DHT22;7018;50.838;4.226;2022-09-20T15:53:32;15.90;99.90
13896;DHT22;7018;50.838;4.226;2022-09-20T15:56:02;16.00;99.90
13896;DHT22;7018;50.838;4.226;2022-09-20T15:58:32;16.00;99.90
13896;DHT22;7018;50.838;4.226;2022-09-20T16:01:02;16.00;99.90
13896;DHT22;7018;50.838;4.226;2022-09-20T16:03:31;16.00;99.90
13896;DHT22;7018;50.838;4.226;2022-09-20T16:05:59;16.00;99.90
13896;DHT22;7018;50.838;4.226;2022-09-20T16:08:36;15.90;99.90
13896;DHT22;7018;50.838;4.226;2022-09-20T16:11:05;16.00;99.90
13896;DHT22;7018;50.838;4.226;2022-09-20T16:13:33;16.10;99.90
13896;DHT22;7018;50.838;4.226;2022-09-20T16:16:05;15.90;99.90
13896;DHT22;7018;50.838;4.226;2022-09-20T16:18:32;15.80;99.90
13896;DHT22;7018;50.838;4.226;2022-09-20T16:21:19;15.80;99.90
13896;DHT22;7018;50.838;4.226;2022-09-20T16:23:49;15.90;99.90
13896;DHT22;7018;50.838;4.226;2022-09-20T16:26:17;15.80;99.90
13896;DHT22;7018;50.838;4.226;2022-09-20T16:28:45;15.90;99.90
13896;DHT22;7018;50.838;4.226;2022-09-20T16:31:38;16.00;99.90
13896;DHT22;7018;50.838;4.226;2022-09-20T16:36:38;16.00;99.90
13896;DHT22;7018;50.838;4.226;2022-09-20T16:39:07;16.10;99.90
13896;DHT22;7018;50.838;4.226;2022-09-20T16:41:34;16.10;99.90
13896;DHT22;7018;50.838;4.226;2022-09-20T16:44:02;16.00;99.90
13896;DHT22;7018;50.838;4.226;2022-09-20T16:46:29;16.00;99.90
13896;DHT22;7018;50.838;4.226;2022-09-20T16:48:58;15.90;99.90
13896;DHT22;7018;50.838;4.226;2022-09-20T16:51:31;15.60;99.90
13896;DHT22;7018;50.838;4.226;2022-09-20T16:54:15;15.60;99.90
13896;DHT22;7018;50.838;4.226;2022-09-20T16:56:45;15.60;99.90
13896;DHT22;7018;50.838;4.226;2022-09-20T16:59:15;15.60;99.90
13896;DHT22;7018;50.838;4.226;2022-09-20T17:01:44;15.50;99.90
13896;DHT22;7018;50.838;4.226;2022-09-20T17:04:11;15.50;99.90
13896;DHT22;7018;50.838;4.226;2022-09-20T17:06:44;15.40;99.90
13896;DHT22;7018;50.838;4.226;2022-09-20T17:09:13;15.30;99.90
13896;DHT22;7018;50.838;4.226;2022-09-20T17:11:43;15.30;99.90
13896;DHT22;7018;50.838;4.226;2022-09-20T17:14:12;15.20;99.90
13896;DHT22;7018;50.838;4.226;2022-09-20T17:16:40;15.10;99.90
13896;DHT22;7018;50.838;4.226;2022-09-20T17:19:10;15.10;99.90
13896;DHT22;7018;50.838;4.226;2022-09-20T17:21:42;15.00;99.90
13896;DHT22;7018;50.838;4.226;2022-09-20T17:24:11;14.90;99.90
13896;DHT22;7018;50.838;4.226;2022-09-20T17:26:41;14.80;99.90
13896;DHT22;7018;50.838;4.226;2022-09-20T17:29:13;14.90;99.90
13896;DHT22;7018;50.838;4.226;2022-09-20T17:31:43;14.70;99.90
13896;DHT22;7018;50.838;4.226;2022-09-20T17:34:14;14.80;99.90
13896;DHT22;7018;50.838;4.226;2022-09-20T17:36:44;14.60;99.90
13896;DHT22;7018;50.838;4.226;2022-09-20T17:39:13;14.50;99.90
13896;DHT22;7018;50.838;4.226;2022-09-20T17:41:43;14.40;99.90
13896;DHT22;7018;50.838;4.226;2022-09-20T17:44:11;14.30;99.90
13896;DHT22;7018;50.838;4.226;2022-09-20T17:46:41;14.30;99.90
13896;DHT22;7018;50.838;4.226;2022-09-20T17:49:13;14.30;99.90
13896;DHT22;7018;50.838;4.226;2022-09-20T17:51:43;14.20;99.90
13896;DHT22;7018;50.838;4.226;2022-09-20T17:54:11;14.10;99.90
13896;DHT22;7018;50.838;4.226;2022-09-20T17:56:40;14.10;99.90
13896;DHT22;7018;50.838;4.226;2022-09-20T17:59:10;14.00;99.90
13896;DHT22;7018;50.838;4.226;2022-09-20T18:01:38;14.00;99.90
13896;DHT22;7018;50.838;4.226;2022-09-20T18:04:07;14.00;99.90
13896;DHT22;7018;50.838;4.226;2022-09-20T18:06:48;14.00;99.90
13896;DHT22;7018;50.838;4.226;2022-09-20T18:09:17;14.00;99.90
13896;DHT22;7018;50.838;4.226;2022-09-20T18:11:51;13.90;99.90
13896;DHT22;7018;50.838;4.226;2022-09-20T18:14:23;13.80;99.90
13896;DHT22;7018;50.838;4.226;2022-09-20T18:16:52;13.80;99.90
13896;DHT22;7018;50.838;4.226;2022-09-20T18:19:19;13.80;99.90
13896;DHT22;7018;50.838;4.226;2022-09-20T18:21:49;13.70;99.90
13896;DHT22;7018;50.838;4.226;2022-09-20T18:24:16;13.70;99.90
13896;DHT22;7018;50.838;4.226;2022-09-20T18:26:44;13.70;99.90
13896;DHT22;7018;50.838;4.226;2022-09-20T18:29:14;13.70;99.90
13896;DHT22;7018;50.838;4.226;2022-09-20T18:31:47;13.70;99.90
13896;DHT22;7018;50.838;4.226;2022-09-20T18:34:17;13.60;99.90
13896;DHT22;7018;50.838;4.226;2022-09-20T18:36:48;13.60;99.90
13896;DHT22;7018;50.838;4.226;2022-09-20T18:39:29;13.60;99.90
13896;DHT22;7018;50.838;4.226;2022-09-20T18:42:00;13.60;99.90
13896;DHT22;7018;50.838;4.226;2022-09-20T18:44:28;13.50;99.90
13896;DHT22;7018;50.838;4.226;2022-09-20T18:47:00;13.50;99.90
13896;DHT22;7018;50.838;4.226;2022-09-20T18:49:29;13.50;99.90
13896;DHT22;7018;50.838;4.226;2022-09-20T18:51:56;13.40;99.90
13896;DHT22;7018;50.838;4.226;2022-09-20T18:54:24;13.50;99.90
13896;DHT22;7018;50.838;4.226;2022-09-20T18:56:53;13.40;99.90
13896;DHT22;7018;50.838;4.226;2022-09-20T18:59:21;13.30;99.90
13896;DHT22;7018;50.838;4.226;2022-09-20T19:01:59;13.30;99.90
13896;DHT22;7018;50.838;4.226;2022-09-20T19:13:52;13.00;99.90
13896;DHT22;7018;50.838;4.226;2022-09-20T19:16:28;13.00;99.90
13896;DHT22;7018;50.838;4.226;2022-09-20T19:19:20;12.90;99.90
13896;DHT22;7018;50.838;4.226;2022-09-20T19:27:41;12.60;99.90
13896;DHT22;7018;50.838;4.226;2022-09-20T19:30:12;12.40;99.90
13896;DHT22;7018;50.838;4.226;2022-09-20T19:32:41;12.50;99.90
13896;DHT22;7018;50.838;4.226;2022-09-20T19:35:20;12.40;99.90
13896;DHT22;7018;50.838;4.226;2022-09-20T19:38:01;12.30;99.90
13896;DHT22;7018;50.838;4.226;2022-09-20T19:40:50;12.40;99.90
13896;DHT22;7018;50.838;4.226;2022-09-20T19:43:36;12.30;99.90
13896;DHT22;7018;50.838;4.226;2022-09-20T19:51:41;12.30;99.90
13896;DHT22;7018;50.838;4.226;2022-09-20T19:54:11;12.30;99.90
13896;DHT22;7018;50.838;4.226;2022-09-20T19:56:50;12.30;99.90
13896;DHT22;7018;50.838;4.226;2022-09-20T19:59:22;12.30;99.90
13896;DHT22;7018;50.838;4.226;2022-09-20T20:01:51;12.40;99.90
13896;DHT22;7018;50.838;4.226;2022-09-20T20:04:20;12.40;99.90
13896;DHT22;7018;50.838;4.226;2022-09-20T20:07:20;12.40;99.90
13896;DHT22;7018;50.838;4.226;2022-09-20T20:13:16;12.30;99.90
13896;DHT22;7018;50.838;4.226;2022-09-20T20:24:51;12.10;99.90
13896;DHT22;7018;50.838;4.226;2022-09-20T20:27:20;12.10;99.90
13896;DHT22;7018;50.838;4.226;2022-09-20T20:29:48;12.20;99.90
13896;DHT22;7018;50.838;4.226;2022-09-20T20:32:16;12.10;99.90
13896;DHT22;7018;50.838;4.226;2022-09-20T20:34:44;12.10;99.90
13896;DHT22;7018;50.838;4.226;2022-09-20T20:37:11;12.10;99.90
13896;DHT22;7018;50.838;4.226;2022-09-20T20:39:39;12.00;99.90
13896;DHT22;7018;50.838;4.226;2022-09-20T20:42:06;12.00;99.90
13896;DHT22;7018;50.838;4.226;2022-09-20T20:44:36;11.90;99.90
13896;DHT22;7018;50.838;4.226;2022-09-20T20:47:05;11.90;99.90
13896;DHT22;7018;50.838;4.226;2022-09-20T20:49:32;11.70;99.90
13896;DHT22;7018;50.838;4.226;2022-09-20T20:52:01;11.70;99.90
13896;DHT22;7018;50.838;4.226;2022-09-20T20:54:31;11.70;99.90
13896;DHT22;7018;50.838;4.226;2022-09-20T20:56:58;11.60;99.90
13896;DHT22;7018;50.838;4.226;2022-09-20T20:59:26;11.60;99.90
13896;DHT22;7018;50.838;4.226;2022-09-20T21:01:53;11.60;99.90
13896;DHT22;7018;50.838;4.226;2022-09-20T21:04:21;11.60;99.90
13896;DHT22;7018;50.838;4.226;2022-09-20T21:06:51;11.60;99.90
13896;DHT22;7018;50.838;4.226;2022-09-20T21:09:19;11.60;99.90
13896;DHT22;7018;50.838;4.226;2022-09-20T21:11:47;11.50;99.90
13896;DHT22;7018;50.838;4.226;2022-09-20T21:14:14;11.40;99.90
13896;DHT22;7018;50.838;4.226;2022-09-20T21:16:42;11.40;99.90
13896;DHT22;7018;50.838;4.226;2022-09-20T21:19:11;11.40;99.90
13896;DHT22;7018;50.838;4.226;2022-09-20T21:21:42;11.40;99.90
13896;DHT22;7018;50.838;4.226;2022-09-20T21:24:12;11.40;99.90
13896;DHT22;7018;50.838;4.226;2022-09-20T21:26:41;11.50;99.90
13896;DHT22;7018;50.838;4.226;2022-09-20T21:29:10;11.50;99.90
13896;DHT22;7018;50.838;4.226;2022-09-20T21:31:40;11.50;99.90
13896;DHT22;7018;50.838;4.226;2022-09-20T21:34:09;11.40;99.90
13896;DHT22;7018;50.838;4.226;2022-09-20T21:36:38;11.40;99.90
13896;DHT22;7018;50.838;4.226;2022-09-20T21:39:07;11.40;99.90
13896;DHT22;7018;50.838;4.226;2022-09-20T21:41:36;11.30;99.90
13896;DHT22;7018;50.838;4.226;2022-09-20T21:44:05;11.20;99.90
13896;DHT22;7018;50.838;4.226;2022-09-20T21:46:35;11.10;99.90
13896;DHT22;7018;50.838;4.226;2022-09-20T21:49:06;11.00;99.90
13896;DHT22;7018;50.838;4.226;2022-09-20T21:51:37;10.80;99.90
13896;DHT22;7018;50.838;4.226;2022-09-20T21:54:05;10.70;99.90
13896;DHT22;7018;50.838;4.226;2022-09-20T21:56:34;10.70;99.90
13896;DHT22;7018;50.838;4.226;2022-09-20T21:59:02;10.60;99.90
13896;DHT22;7018;50.838;4.226;2022-09-20T22:01:32;10.60;99.90
13896;DHT22;7018;50.838;4.226;2022-09-20T22:04:09;10.60;99.90
13896;DHT22;7018;50.838;4.226;2022-09-20T22:06:39;10.60;99.90
13896;DHT22;7018;50.838;4.226;2022-09-20T22:09:09;10.60;99.90
13896;DHT22;7018;50.838;4.226;2022-09-20T22:11:45;10.60;99.90
13896;DHT22;7018;50.838;4.226;2022-09-20T22:14:15;10.60;99.90
13896;DHT22;7018;50.838;4.226;2022-09-20T22:16:44;10.70;99.90
13896;DHT22;7018;50.838;4.226;2022-09-20T22:19:14;10.70;99.90
13896;DHT22;7018;50.838;4.226;2022-09-20T22:21:45;10.60;99.90